Tasman Mariner — VRWW8 — position and weather

sailwx.info

Track history (hours):
 
Tides and Currents Weather Stations Pressure Air Temp Water Temp Dewpoint Dewpoint Depression Visibility Wind Speed Wind Dir Waves Ship Positions

Tasman Mariner

Last reported at 2014-Sep-20 18:34 UTC. Time now 2014-Sep-22 14:18 UTC.
Position S 38°57' E 145°43'.

Length 184 m; beam 27 m; draft 10 m.

Type: Cargo ship. MMSI: 477860000.

Date/timePositionNaut miles runAvg speedWind from/ knotsBaromVisibWave heightAir tempDewpointWater temp
2014-Sep-20 18:34S 38°57' E 145°43'1211.6
2014-Sep-20 17:33S 39°03' E 145°56'1211.6
2014-Sep-20 16:33S 39°09' E 146°09'1110.6
2014-Sep-20 15:33S 39°11' E 146°22'1110.7
2014-Sep-20 14:33S 39°08' E 146°35'1010.4
2014-Sep-20 13:34S 39°04' E 146°48'1010.5
2014-Sep-20 12:34S 39°01' E 147°01'1110.6
2014-Sep-20 11:33S 38°58' E 147°14'1110.7
2014-Sep-20 10:32S 38°54' E 147°27'6610.9
2014-Sep-20 04:31S 38°26' E 148°43'1210.7
2014-Sep-20 03:24S 38°19' E 148°55'910.7
2014-Sep-20 02:34S 38°13' E 149°04'5711.5
2014-Sep-19 21:33S 37°39' E 150°02'7 7.1
2014-Sep-19 20:33S 37°34' E 150°09'8 7.2
2014-Sep-19 19:30S 37°27' E 150°11'7 7.8
2014-Sep-19 18:33S 37°19' E 150°13'261 9.2
2014-Sep-18 14:07S 33°13' E 151°59'6 9.8
2014-Sep-18 13:30S 33°08' E 152°03'1010.1
2014-Sep-18 12:33S 32°60' E 152°08'1010.3
2014-Sep-18 11:33S 32°51' E 152°16'1010.0
2014-Sep-18 10:33S 32°44' E 152°23'10 9.9
2014-Sep-18 09:33S 32°36' E 152°30'9 9.3
2014-Sep-18 08:33S 32°29' E 152°38'23210.4
2014-Sep-17 10:15S 28°43' E 153°42'2311.8
2014-Sep-17 08:20S 28°21' E 153°42'1211.4
2014-Sep-17 07:15S 28°08' E 153°43'811.7
2014-Sep-17 06:33S 28°00' E 153°42'1211.9
2014-Sep-17 05:34S 27°48' E 153°43'1211.8
2014-Sep-17 04:33S 27°36' E 153°43'1212.3
2014-Sep-17 03:33S 27°24' E 153°43'6 6.5
2014-Sep-17 02:34S 27°18' E 153°43'2 1.9
2014-Sep-17 01:33S 27°16' E 153°43'2 2.4
2014-Sep-17 00:33S 27°14' E 153°43'3 3.3
2014-Sep-16 23:34S 27°10' E 153°43'3 3.5
2014-Sep-16 22:34S 27°07' E 153°42'1111.0
2014-Sep-16 21:34S 26°56' E 153°43'1312.3
2014-Sep-16 20:33S 26°44' E 153°46'1212.1
2014-Sep-16 19:33S 26°32' E 153°49'1212.3
2014-Sep-16 18:33S 26°20' E 153°52'1312.7
2014-Sep-16 17:34S 26°07' E 153°54'1212.4
2014-Sep-16 16:33S 25°55' E 153°57'1212.2
2014-Sep-16 15:33S 25°43' E 154°00'1212.1
2014-Sep-16 14:33S 25°31' E 154°03'1212.1
2014-Sep-16 13:33S 25°19' E 154°05'1312.2
2014-Sep-16 12:30S 25°07' E 154°08'  
Track history (hours):
 
Tides and Currents Weather Stations Pressure Air Temp Water Temp Dewpoint Dewpoint Depression Visibility Wind Speed Wind Dir Waves Ship Positions

Tasman Mariner

Last reported at 2014-Sep-20 18:34 UTC. Time now 2014-Sep-22 14:18 UTC.
Position S 38°57' E 145°43'.

Length 184 m; beam 27 m; draft 10 m.

Type: Cargo ship. MMSI: 477860000.

Date/timePositionNaut miles runAvg speedWind from/ knotsBaromVisibWave heightAir tempDewpointWater temp
2014-Sep-20 18:34S 38°57' E 145°43'1211.6
2014-Sep-20 17:33S 39°03' E 145°56'1211.6
2014-Sep-20 16:33S 39°09' E 146°09'1110.6
2014-Sep-20 15:33S 39°11' E 146°22'1110.7
2014-Sep-20 14:33S 39°08' E 146°35'1010.4
2014-Sep-20 13:34S 39°04' E 146°48'1010.5
2014-Sep-20 12:34S 39°01' E 147°01'1110.6
2014-Sep-20 11:33S 38°58' E 147°14'1110.7
2014-Sep-20 10:32S 38°54' E 147°27'6610.9
2014-Sep-20 04:31S 38°26' E 148°43'1210.7
2014-Sep-20 03:24S 38°19' E 148°55'910.7
2014-Sep-20 02:34S 38°13' E 149°04'5711.5
2014-Sep-19 21:33S 37°39' E 150°02'7 7.1
2014-Sep-19 20:33S 37°34' E 150°09'8 7.2
2014-Sep-19 19:30S 37°27' E 150°11'7 7.8
2014-Sep-19 18:33S 37°19' E 150°13'261 9.2
2014-Sep-18 14:07S 33°13' E 151°59'6 9.8
2014-Sep-18 13:30S 33°08' E 152°03'1010.1
2014-Sep-18 12:33S 32°60' E 152°08'1010.3
2014-Sep-18 11:33S 32°51' E 152°16'1010.0
2014-Sep-18 10:33S 32°44' E 152°23'10 9.9
2014-Sep-18 09:33S 32°36' E 152°30'9 9.3
2014-Sep-18 08:33S 32°29' E 152°38'23210.4
2014-Sep-17 10:15S 28°43' E 153°42'2311.8
2014-Sep-17 08:20S 28°21' E 153°42'1211.4
2014-Sep-17 07:15S 28°08' E 153°43'811.7
2014-Sep-17 06:33S 28°00' E 153°42'1211.9
2014-Sep-17 05:34S 27°48' E 153°43'1211.8
2014-Sep-17 04:33S 27°36' E 153°43'1212.3
2014-Sep-17 03:33S 27°24' E 153°43'6 6.5
2014-Sep-17 02:34S 27°18' E 153°43'2 1.9
2014-Sep-17 01:33S 27°16' E 153°43'2 2.4
2014-Sep-17 00:33S 27°14' E 153°43'3 3.3
2014-Sep-16 23:34S 27°10' E 153°43'3 3.5
2014-Sep-16 22:34S 27°07' E 153°42'1111.0
2014-Sep-16 21:34S 26°56' E 153°43'1312.3
2014-Sep-16 20:33S 26°44' E 153°46'1212.1
2014-Sep-16 19:33S 26°32' E 153°49'1212.3
2014-Sep-16 18:33S 26°20' E 153°52'1312.7
2014-Sep-16 17:34S 26°07' E 153°54'1212.4
2014-Sep-16 16:33S 25°55' E 153°57'1212.2
2014-Sep-16 15:33S 25°43' E 154°00'1212.1
2014-Sep-16 14:33S 25°31' E 154°03'1212.1
2014-Sep-16 13:33S 25°19' E 154°05'1312.2
2014-Sep-16 12:30S 25°07' E 154°08'  

Dump ship's entire track history